Time;durP1;ratioP1;P1;durP2;ratioP2;P2;SDS_P1;SDS_P2;PMS_P1;PMS_P2;Temp;Humidity;BMP_temperature;BMP_pressure;BME280_temperature;BME280_humidity;BME280_pressure;Samples;Min_cycle;Max_cycle;Signal;HPM_P1;HPM_P2
2021/10/10 00:02:09;;;;;;;6.97;2.30;;;;;;;;;;21264333;27;20059;-69
2021/10/10 00:12:12;;;;;;;4.20;2.20;;;;;;;;;;21257567;27;20474;-68
2021/10/10 00:22:15;;;;;;;3.80;1.13;;;;;;;;;;21252619;27;20047;-74
2021/10/10 00:32:18;;;;;;;1.60;0.90;;;;;;;;;;21249862;27;20047;-70
2021/10/10 00:42:21;;;;;;;3.03;1.10;;;;;;;;;;21248827;27;20050;-75
2021/10/10 00:52:24;;;;;;;1.63;1.07;;;;;;;;;;21250470;27;20156;-75
2021/10/10 01:02:29;;;;;;;2.10;1.10;;;;;;;;;;21251707;27;20138;-76
2021/10/10 01:12:33;;;;;;;3.45;0.98;;;;;;;;;;21247442;27;20051;-74
2021/10/10 01:22:38;;;;;;;3.83;1.30;;;;;;;;;;21247309;27;20062;-71
2021/10/10 01:32:53;;;;;;;2.53;0.93;;;;;;;;;;21248553;27;20054;-74
2021/10/10 01:43:02;;;;;;;3.63;1.17;;;;;;;;;;21263340;27;20490;-73
2021/10/10 01:53:08;;;;;;;1.38;0.90;;;;;;;;;;21262110;27;20054;-75
2021/10/10 02:03:16;;;;;;;2.20;0.93;;;;;;;;;;21278207;27;20059;-73
2021/10/10 02:13:23;;;;;;;4.72;1.20;;;;;;;;;;21266200;27;20051;-75
2021/10/10 02:23:34;;;;;;;3.10;1.20;;;;;;;;;;21261474;27;20051;-73
2021/10/10 02:33:40;;;;;;;1.90;1.17;;;;;;;;;;21259427;27;20043;-73
2021/10/10 02:44:01;;;;;;;2.90;1.25;;;;;;;;;;21258354;27;20058;-71
2021/10/10 02:54:14;;;;;;;4.22;1.20;;;;;;;;;;21257592;27;20137;-63
2021/10/10 03:04:22;;;;;;;4.00;1.40;;;;;;;;;;21256589;27;20402;-73
2021/10/10 03:14:31;;;;;;;2.55;1.48;;;;;;;;;;21255977;27;20039;-66
2021/10/10 03:24:36;;;;;;;2.38;1.42;;;;;;;;;;21254700;27;20047;-73
2021/10/10 03:34:42;;;;;;;3.15;1.30;;;;;;;;;;21253582;27;20066;-72
2021/10/10 03:44:48;;;;;;;2.90;1.33;;;;;;;;;;21252112;27;20142;-73
2021/10/10 04:15:42;;;;;;;3.13;1.50;;;;;;;;;;21073002;28;20473;-73
2021/10/10 04:25:49;;;;;;;3.83;1.42;;;;;;;;;;21071884;28;20541;-72
2021/10/10 04:35:55;;;;;;;4.95;1.60;;;;;;;;;;21071426;28;20048;-74
2021/10/10 04:45:59;;;;;;;2.45;1.50;;;;;;;;;;21113042;27;20050;-71
2021/10/10 04:56:04;;;;;;;2.97;1.80;;;;;;;;;;21249144;27;20603;-72
2021/10/10 05:06:11;;;;;;;4.03;1.83;;;;;;;;;;21248049;27;20088;-74
2021/10/10 05:16:16;;;;;;;4.75;1.90;;;;;;;;;;21264996;27;20043;-75
2021/10/10 05:26:24;;;;;;;2.85;1.88;;;;;;;;;;21264590;27;20176;-68
2021/10/10 05:36:33;;;;;;;2.40;1.58;;;;;;;;;;21263636;27;20122;-74
2021/10/10 05:46:47;;;;;;;4.95;1.92;;;;;;;;;;21263316;27;20051;-72
2021/10/10 05:57:00;;;;;;;3.33;1.98;;;;;;;;;;21262279;27;20047;-74
2021/10/10 06:07:09;;;;;;;4.55;1.75;;;;;;;;;;21261287;27;20526;-74
2021/10/10 06:17:23;;;;;;;5.27;2.00;;;;;;;;;;21260811;27;20478;-68
2021/10/10 06:27:25;;;;;;;4.80;2.10;;;;;;;;;;21259522;27;20082;-74
2021/10/10 06:37:33;;;;;;;4.40;2.13;;;;;;;;;;21258879;27;20047;-75
2021/10/10 06:47:42;;;;;;;7.13;2.47;;;;;;;;;;21240435;27;20383;-74
2021/10/10 06:57:51;;;;;;;4.38;1.90;;;;;;;;;;21255997;27;20058;-73
2021/10/10 07:07:59;;;;;;;5.15;2.15;;;;;;;;;;21257617;27;20379;-73
2021/10/10 07:18:05;;;;;;;3.85;1.92;;;;;;;;;;21258032;27;20436;-69
2021/10/10 07:28:11;;;;;;;4.22;2.40;;;;;;;;;;21276735;27;20051;-71
2021/10/10 07:38:20;;;;;;;4.78;2.17;;;;;;;;;;21264445;27;20051;-75
2021/10/10 07:48:27;;;;;;;3.15;2.13;;;;;;;;;;21258472;27;20082;-74
2021/10/10 07:58:33;;;;;;;5.03;2.72;;;;;;;;;;21253767;27;20494;-68
2021/10/10 08:08:38;;;;;;;3.50;2.25;;;;;;;;;;21251412;27;20058;-72
2021/10/10 08:18:46;;;;;;;3.85;2.15;;;;;;;;;;21251237;27;20043;-68
2021/10/10 08:28:53;;;;;;;5.00;2.50;;;;;;;;;;21249795;27;20058;-73
2021/10/10 08:38:57;;;;;;;5.15;2.92;;;;;;;;;;21249578;27;20043;-74
2021/10/10 08:49:03;;;;;;;6.32;2.35;;;;;;;;;;21249032;27;20075;-68
2021/10/10 08:59:10;;;;;;;3.25;2.50;;;;;;;;;;21249382;27;20043;-73
2021/10/10 09:09:31;;;;;;;5.25;2.70;;;;;;;;;;21248133;27;20047;-70
2021/10/10 09:19:39;;;;;;;4.97;2.90;;;;;;;;;;21247800;28;20047;-69
2021/10/10 09:29:45;;;;;;;8.65;3.03;;;;;;;;;;21248625;27;20051;-73
2021/10/10 09:40:17;;;;;;;3.60;2.78;;;;;;;;;;21231031;27;20062;-72
2021/10/10 09:50:14;;;;;;;4.60;2.60;;;;;;;;;;21252102;27;20043;-64
2021/10/10 10:00:20;;;;;;;6.43;2.85;;;;;;;;;;21260281;27;20482;-65
2021/10/10 10:10:25;;;;;;;7.68;3.20;;;;;;;;;;21280064;27;20050;-64
2021/10/10 10:20:30;;;;;;;5.72;3.22;;;;;;;;;;21312584;27;20054;-74
2021/10/10 10:30:35;;;;;;;3.88;2.60;;;;;;;;;;21264712;27;20469;-75
2021/10/10 10:40:41;;;;;;;5.00;3.22;;;;;;;;;;21258884;27;20043;-71
2021/10/10 10:50:44;;;;;;;5.23;3.03;;;;;;;;;;21257991;27;20047;-77
2021/10/10 11:01:04;;;;;;;5.75;3.08;;;;;;;;;;21258119;27;20131;-74
2021/10/10 11:11:13;;;;;;;6.60;3.25;;;;;;;;;;21255491;27;20053;-73
2021/10/10 11:21:29;;;;;;;6.55;3.42;;;;;;;;;;21255007;27;20520;-72
2021/10/10 11:31:32;;;;;;;5.10;3.30;;;;;;;;;;21255057;27;20100;-66
2021/10/10 11:41:43;;;;;;;5.47;3.30;;;;;;;;;;21254550;27;20103;-64
2021/10/10 11:51:49;;;;;;;5.50;3.50;;;;;;;;;;21254896;27;20410;-64
2021/10/10 12:01:57;;;;;;;5.75;4.18;;;;;;;;;;21235602;27;20139;-62
2021/10/10 12:12:12;;;;;;;8.57;4.15;;;;;;;;;;21252000;27;20455;-62
2021/10/10 12:22:14;;;;;;;;;;;;;;;;;;21250500;27;20047;-69
2021/10/10 12:32:18;;;;;;;;;;;;;;;;;;21249814;27;19930;-73
2021/10/10 12:42:23;;;;;;;5.93;3.25;;;;;;;;;;21249030;27;19926;-63
2021/10/10 12:52:38;;;;;;;4.18;3.40;;;;;;;;;;21265884;27;20490;-68
2021/10/10 13:02:43;;;;;;;4.70;3.78;;;;;;;;;;21232364;27;20051;-64
2021/10/10 13:12:48;;;;;;;6.72;3.63;;;;;;;;;;21249465;27;20055;-65
2021/10/10 13:22:54;;;;;;;7.70;3.55;;;;;;;;;;21250426;27;20051;-72
2021/10/10 13:32:57;;;;;;;5.63;3.33;;;;;;;;;;21260144;27;20095;-73
2021/10/10 13:43:02;;;;;;;6.38;2.92;;;;;;;;;;21267314;27;20127;-74
2021/10/10 13:53:10;;;;;;;4.30;3.22;;;;;;;;;;21263595;27;20046;-68
2021/10/10 14:03:15;;;;;;;4.63;3.03;;;;;;;;;;21262091;27;20055;-68
2021/10/10 14:13:21;;;;;;;8.35;4.72;;;;;;;;;;21260551;27;20509;-70
2021/10/10 14:23:26;;;;;;;4.35;2.63;;;;;;;;;;21263945;27;20123;-72
2021/10/10 14:33:28;;;;;;;5.33;2.70;;;;;;;;;;21260312;27;20051;-72
2021/10/10 14:43:36;;;;;;;3.95;2.13;;;;;;;;;;21261788;27;20851;-73
2021/10/10 14:53:39;;;;;;;4.45;2.53;;;;;;;;;;21263369;27;20050;-73
2021/10/10 15:03:43;;;;;;;4.63;2.40;;;;;;;;;;21270237;27;20115;-64
2021/10/10 15:13:45;;;;;;;6.05;2.40;;;;;;;;;;21311565;27;20486;-74
2021/10/10 15:23:47;;;;;;;3.50;2.38;;;;;;;;;;21276905;27;20047;-69
2021/10/10 15:33:50;;;;;;;6.03;2.93;;;;;;;;;;21254736;27;20047;-66
2021/10/10 15:43:54;;;;;;;13.40;9.60;;;;;;;;;;21263124;27;20471;-65
2021/10/10 15:54:00;;;;;;;4.28;3.10;;;;;;;;;;21266625;27;20450;-74
2021/10/10 16:04:02;;;;;;;5.30;2.15;;;;;;;;;;21251387;27;20051;-76
2021/10/10 16:14:05;;;;;;;4.43;2.28;;;;;;;;;;21251405;27;20039;-69
2021/10/10 16:24:07;;;;;;;6.13;3.50;;;;;;;;;;21250210;27;20050;-68
2021/10/10 16:44:36;;;;;;;3.38;1.92;;;;;;;;;;20987993;28;20785;-73
2021/10/10 16:54:38;;;;;;;;;;;;;;;;;;21014865;28;20139;-72
2021/10/10 17:04:40;;;;;;;5.03;2.47;;;;;;;;;;21006268;28;19963;-75
2021/10/10 17:14:43;;;;;;;3.97;2.30;;;;;;;;;;21066751;27;20051;-73
2021/10/10 17:24:45;;;;;;;4.45;2.65;;;;;;;;;;21276808;27;20058;-69
2021/10/10 17:34:49;;;;;;;5.80;2.60;;;;;;;;;;21275294;27;20478;-70
2021/10/10 17:44:52;;;;;;;3.60;2.60;;;;;;;;;;21274826;27;20486;-74
2021/10/10 17:54:55;;;;;;;9.93;6.10;;;;;;;;;;21273932;27;20050;-72
2021/10/10 18:15:21;;;;;;;12.45;7.63;;;;;;;;;;21272103;27;20057;-73
2021/10/10 18:25:23;;;;;;;;;;;;;;;;;;21259815;27;20061;-64
2021/10/10 18:35:29;;;;;;;12.48;6.35;;;;;;;;;;21259746;27;20076;-67
2021/10/10 18:45:30;;;;;;;10.10;5.40;;;;;;;;;;21267034;27;20047;-65
2021/10/10 18:55:32;;;;;;;17.52;9.85;;;;;;;;;;21297359;27;20045;-73
2021/10/10 19:05:34;;;;;;;14.10;9.20;;;;;;;;;;21258439;27;20062;-70
2021/10/10 19:15:36;;;;;;;14.15;7.43;;;;;;;;;;21257567;27;20070;-69
2021/10/10 19:25:38;;;;;;;14.52;7.25;;;;;;;;;;21254649;27;20090;-74
2021/10/10 19:35:40;;;;;;;14.40;7.70;;;;;;;;;;21255858;27;20048;-73
2021/10/10 19:45:43;;;;;;;10.73;6.47;;;;;;;;;;21244012;27;20050;-66
2021/10/10 19:55:47;;;;;;;9.73;5.65;;;;;;;;;;21256787;27;20047;-66
2021/10/10 20:05:49;;;;;;;10.05;5.20;;;;;;;;;;21235101;27;20517;-65
2021/10/10 20:15:51;;;;;;;11.15;4.43;;;;;;;;;;21250525;27;20047;-73
2021/10/10 20:25:53;;;;;;;10.32;4.22;;;;;;;;;;21250321;27;20043;-69
2021/10/10 20:35:55;;;;;;;8.77;4.85;;;;;;;;;;21232257;27;20043;-71
2021/10/10 20:45:59;;;;;;;9.30;5.03;;;;;;;;;;21250439;27;20134;-69
2021/10/10 20:56:03;;;;;;;8.95;4.00;;;;;;;;;;21251596;27;20043;-75
2021/10/10 21:06:08;;;;;;;11.30;4.57;;;;;;;;;;21249921;27;20156;-75
2021/10/10 21:16:10;;;;;;;7.93;4.22;;;;;;;;;;21248842;27;20043;-74
2021/10/10 21:26:13;;;;;;;8.57;5.13;;;;;;;;;;21247519;27;20047;-66
2021/10/10 21:36:15;;;;;;;7.03;4.43;;;;;;;;;;21247139;27;20054;-69
2021/10/10 21:46:16;;;;;;;6.05;4.50;;;;;;;;;;21252422;27;20470;-75
2021/10/10 21:56:19;;;;;;;6.70;4.50;;;;;;;;;;21258302;27;20062;-68
2021/10/10 22:06:20;;;;;;;6.55;4.35;;;;;;;;;;21184898;28;20056;-74
2021/10/10 22:16:23;;;;;;;8.20;4.70;;;;;;;;;;21164800;28;20050;-66
2021/10/10 22:26:38;;;;;;;7.17;4.70;;;;;;;;;;21182827;28;20052;-76
2021/10/10 22:36:40;;;;;;;10.50;6.30;;;;;;;;;;21216076;28;20044;-73
2021/10/10 22:46:42;;;;;;;9.50;5.15;;;;;;;;;;21190615;28;20058;-69
2021/10/10 22:56:47;;;;;;;13.38;6.25;;;;;;;;;;21210447;27;20104;-74
2021/10/10 23:06:50;;;;;;;8.13;5.40;;;;;;;;;;21265840;27;20132;-68
2021/10/10 23:16:52;;;;;;;12.95;5.10;;;;;;;;;;21271973;27;20047;-75
2021/10/10 23:26:54;;;;;;;6.30;3.63;;;;;;;;;;21266290;27;20486;-65
2021/10/10 23:36:55;;;;;;;8.70;4.65;;;;;;;;;;21256908;27;20047;-73
2021/10/10 23:46:57;;;;;;;11.60;8.02;;;;;;;;;;21253835;27;20054;-74
2021/10/10 23:56:59;;;;;;;6.30;3.55;;;;;;;;;;21254289;27;20051;-71
